createdAt,value
2018-06-25T13:42:09.020Z,24.16
2018-06-25T13:44:37.941Z,24.15
2018-06-25T13:47:06.733Z,24.32
2018-06-25T13:49:35.370Z,24.22
2018-06-25T13:52:03.965Z,24.31
2018-06-25T13:54:32.513Z,24.54
2018-06-25T13:57:01.081Z,24.71
2018-06-25T13:59:30.429Z,24.96
2018-06-25T14:01:59.027Z,25.04
2018-06-25T14:04:27.697Z,24.95
2018-06-25T14:06:56.303Z,25.04
2018-06-25T14:09:24.903Z,24.67
2018-06-25T14:11:54.097Z,23.57
2018-06-25T14:14:22.624Z,24.04
2018-06-25T14:16:51.904Z,24.28
2018-06-25T14:19:20.521Z,24.53
2018-06-25T14:21:49.097Z,24.21
2018-06-25T14:24:23.038Z,24.31
2018-06-25T14:26:51.717Z,23.96
2018-06-25T14:29:26.061Z,23.78
2018-06-25T14:31:58.865Z,23.55
2018-06-25T14:36:55.089Z,23.62
2018-06-25T14:39:23.800Z,23.88
2018-06-25T14:41:54.598Z,24.02
2018-06-25T14:44:23.266Z,24.52
2018-06-25T14:46:51.827Z,24.40
2018-06-25T14:49:20.464Z,24.31
2018-06-25T14:51:49.087Z,24.61
2018-06-25T14:54:17.634Z,24.61
2018-06-25T14:56:46.225Z,24.67
2018-06-25T14:59:14.774Z,24.64
2018-06-25T15:01:43.365Z,24.47
2018-06-25T15:04:11.952Z,24.60
2018-06-25T15:06:40.589Z,24.80
2018-06-25T15:09:11.362Z,24.81
2018-06-25T15:11:40.017Z,24.86
2018-06-25T15:14:08.645Z,24.99
2018-06-25T15:16:37.285Z,24.98
2018-06-25T15:19:06.173Z,24.55
2018-06-25T15:21:34.737Z,24.22
2018-06-25T15:24:03.278Z,24.09
2018-06-25T15:26:31.897Z,23.93
2018-06-25T15:29:00.506Z,23.87
2018-06-25T15:31:29.189Z,23.98
2018-06-25T15:33:57.828Z,24.04
2018-06-25T15:36:26.489Z,24.29
2018-06-25T15:38:55.001Z,24.01
2018-06-25T15:41:23.604Z,23.86
2018-06-25T15:43:52.298Z,23.84
2018-06-25T15:46:20.878Z,24.03
2018-06-25T15:48:49.416Z,23.62
2018-06-25T15:51:18.038Z,23.92
2018-06-25T15:53:46.582Z,24.07
2018-06-25T15:56:15.206Z,24.14
2018-06-25T15:58:43.734Z,24.10
2018-06-25T16:01:12.518Z,24.05
2018-06-25T16:03:41.112Z,23.98
2018-06-25T16:06:10.377Z,23.62
2018-06-25T16:08:39.041Z,23.93
2018-06-25T16:11:07.823Z,24.13
2018-06-25T16:13:36.369Z,23.51
2018-06-25T16:16:05.012Z,23.21
2018-06-25T16:18:33.678Z,23.04
2018-06-25T16:21:02.377Z,23.13
2018-06-25T16:23:31.272Z,23.23
2018-06-25T16:25:59.994Z,23.31
2018-06-25T16:28:28.596Z,22.85
2018-06-25T16:30:57.252Z,22.61
2018-06-25T16:33:25.851Z,22.57
2018-06-25T16:35:54.536Z,22.65
2018-06-25T16:38:23.129Z,22.48
2018-06-25T16:40:51.832Z,22.44
2018-06-25T16:43:20.382Z,22.40
2018-06-25T16:45:48.957Z,22.31
2018-06-25T16:48:17.468Z,22.08
2018-06-25T16:50:46.168Z,21.94
2018-06-25T16:53:14.724Z,22.04
2018-06-25T16:55:43.377Z,21.88
2018-06-25T16:58:11.897Z,22.17
2018-06-25T17:00:40.514Z,21.98
2018-06-25T17:03:09.186Z,22.09
2018-06-25T17:05:39.660Z,22.11
2018-06-25T17:08:08.256Z,22.32
2018-06-25T17:10:38.470Z,22.38
2018-06-25T17:13:09.498Z,22.27
2018-06-25T17:15:38.184Z,22.20
2018-06-25T17:18:06.767Z,22.35
2018-06-25T17:20:37.226Z,22.13
2018-06-25T17:23:06.000Z,22.39
2018-06-25T17:25:34.570Z,22.23
2018-06-25T17:28:03.270Z,21.82
2018-06-25T17:30:32.355Z,21.94
2018-06-25T17:33:00.867Z,21.99
2018-06-25T17:35:29.466Z,22.42
2018-06-25T17:37:58.013Z,22.55
2018-06-25T17:40:26.656Z,22.19
2018-06-25T17:42:55.189Z,22.24
2018-06-25T17:45:24.462Z,22.18
2018-06-25T17:47:53.273Z,22.12
2018-06-25T17:50:21.894Z,21.93
2018-06-25T17:52:50.657Z,21.91
2018-06-25T17:55:19.320Z,22.10
2018-06-25T17:57:48.547Z,22.17
2018-06-25T18:00:17.172Z,21.89
2018-06-25T18:02:45.766Z,22.16
2018-06-25T18:05:14.560Z,22.42
2018-06-25T18:07:44.041Z,22.48
2018-06-25T18:10:12.745Z,22.45
2018-06-25T18:12:41.376Z,22.29
2018-06-25T18:15:10.062Z,22.42
2018-06-25T18:17:38.966Z,22.38
2018-06-25T18:20:07.541Z,22.28
2018-06-25T18:22:36.220Z,22.01
2018-06-25T18:25:05.037Z,21.44
2018-06-25T18:27:33.677Z,21.81
2018-06-25T18:30:02.286Z,22.13
2018-06-25T18:32:30.930Z,21.85
2018-06-25T18:34:59.556Z,22.18
2018-06-25T18:37:28.194Z,22.36
2018-06-25T18:39:56.877Z,22.37
2018-06-25T18:42:25.460Z,22.11
2018-06-25T18:44:54.038Z,22.07
2018-06-25T18:47:22.697Z,21.93
2018-06-25T18:49:51.364Z,21.83
2018-06-25T18:52:20.012Z,21.92
2018-06-25T18:54:48.581Z,21.75
2018-06-25T18:57:17.235Z,21.98
2018-06-25T18:59:45.852Z,22.00
2018-06-25T19:02:14.469Z,21.76
2018-06-25T19:04:43.117Z,21.67
2018-06-25T19:07:12.645Z,21.70
2018-06-25T19:09:41.212Z,21.65
2018-06-25T19:12:09.868Z,21.53
2018-06-25T19:14:38.472Z,21.65
2018-06-25T19:17:07.160Z,21.29
2018-06-25T19:19:35.790Z,21.19
2018-06-25T19:22:04.339Z,21.31
2018-06-25T19:24:32.924Z,21.46
2018-06-25T19:27:01.523Z,21.17
2018-06-25T19:29:30.247Z,21.05
2018-06-25T19:31:58.865Z,21.03
2018-06-25T19:34:27.616Z,20.85
2018-06-25T19:36:56.242Z,20.92
2018-06-25T19:39:25.009Z,20.64
2018-06-25T19:41:53.534Z,20.60
2018-06-25T19:44:22.170Z,20.69
2018-06-25T19:46:50.830Z,20.31
2018-06-25T19:49:20.782Z,20.37
2018-06-25T19:51:50.340Z,20.72
2018-06-25T19:54:18.920Z,20.56
2018-06-25T19:56:47.779Z,20.72
2018-06-25T19:59:16.326Z,20.56
2018-06-25T20:01:44.966Z,20.48
2018-06-25T20:04:13.616Z,20.41
2018-06-25T20:06:42.396Z,20.44
2018-06-25T20:09:12.480Z,20.56
2018-06-25T20:11:42.052Z,20.67
2018-06-25T20:14:10.869Z,20.65
2018-06-25T20:16:40.622Z,20.56
2018-06-25T20:19:09.398Z,20.30
2018-06-25T20:21:38.078Z,20.51
2018-06-25T20:24:06.729Z,20.49
2018-06-25T20:26:35.456Z,20.23
2018-06-25T20:29:04.144Z,20.26
2018-06-25T20:31:32.819Z,20.40
2018-06-25T20:34:01.537Z,20.36
2018-06-25T20:36:30.097Z,20.34
2018-06-25T20:38:58.770Z,20.35
2018-06-25T20:41:27.384Z,20.17
2018-06-25T20:43:55.981Z,20.25
2018-06-25T20:46:24.624Z,20.24
2018-06-25T20:48:53.349Z,20.01
2018-06-25T20:51:21.956Z,20.12
2018-06-25T20:53:50.621Z,20.17
2018-06-25T20:56:19.229Z,20.19
2018-06-25T20:58:47.824Z,20.19
2018-06-25T21:01:16.392Z,20.15
2018-06-25T21:03:45.181Z,20.03
2018-06-25T21:06:13.908Z,20.02
2018-06-25T21:08:42.458Z,19.99
2018-06-25T21:11:11.233Z,19.99
2018-06-25T21:13:39.955Z,19.99
2018-06-25T21:16:08.558Z,19.86
2018-06-25T21:18:37.311Z,19.89
2018-06-25T21:21:05.985Z,19.87
2018-06-25T21:23:34.884Z,19.85
2018-06-25T21:26:03.693Z,19.85
2018-06-25T21:28:32.361Z,19.74
2018-06-25T21:31:01.056Z,19.51
2018-06-25T21:33:29.751Z,19.28
2018-06-25T21:35:58.745Z,19.41
2018-06-25T21:38:27.575Z,19.26
2018-06-25T21:40:56.211Z,17.57
2018-06-25T21:43:24.800Z,19.25
2018-06-25T21:45:53.455Z,19.37
2018-06-25T21:48:22.006Z,19.37
2018-06-25T21:50:50.585Z,19.41
2018-06-25T21:53:19.161Z,19.35
2018-06-25T21:55:47.889Z,19.35
2018-06-25T21:58:16.596Z,19.29
2018-06-25T22:00:50.009Z,19.30
2018-06-25T22:03:18.653Z,19.29
2018-06-25T22:05:48.025Z,19.21
2018-06-25T22:08:16.768Z,19.22
2018-06-25T22:10:45.398Z,19.24
2018-06-25T22:13:14.222Z,19.34
2018-06-25T22:15:42.862Z,19.28
2018-06-25T22:18:11.526Z,19.33
2018-06-25T22:20:40.122Z,19.44
2018-06-25T22:23:08.945Z,19.41
2018-06-25T22:25:37.629Z,19.47
2018-06-25T22:28:06.259Z,19.40
2018-06-25T22:30:34.869Z,19.38
2018-06-25T22:33:03.445Z,19.41
2018-06-25T22:35:32.164Z,19.44
2018-06-25T22:38:00.826Z,19.44
2018-06-25T22:40:29.549Z,19.46
2018-06-25T22:42:58.241Z,19.45
2018-06-25T22:45:26.926Z,19.38
2018-06-25T22:47:55.544Z,19.47
2018-06-25T22:50:24.285Z,19.42
2018-06-25T22:52:52.937Z,19.61
2018-06-25T22:55:21.733Z,19.36
2018-06-25T22:57:50.293Z,19.38
2018-06-25T23:00:19.089Z,19.29
2018-06-25T23:02:47.680Z,19.23
2018-06-25T23:05:16.506Z,19.24
2018-06-25T23:07:45.144Z,19.22
2018-06-25T23:10:13.792Z,19.24
2018-06-25T23:12:42.371Z,19.36
2018-06-25T23:15:10.933Z,19.42
2018-06-25T23:17:39.608Z,19.34
2018-06-25T23:20:08.269Z,19.35
2018-06-25T23:22:36.884Z,19.28
2018-06-25T23:25:05.533Z,19.36
2018-06-25T23:27:34.147Z,19.31
2018-06-25T23:30:03.206Z,19.36
2018-06-25T23:32:31.848Z,19.44
2018-06-25T23:35:00.392Z,19.49
2018-06-25T23:37:28.946Z,19.49
2018-06-25T23:39:57.572Z,19.48
2018-06-25T23:42:26.123Z,19.55
2018-06-25T23:44:54.704Z,19.58
2018-06-25T23:47:23.292Z,19.45
2018-06-25T23:49:51.913Z,19.47
2018-06-25T23:52:20.465Z,19.49
2018-06-25T23:54:49.076Z,19.46
2018-06-25T23:57:17.766Z,19.52
2018-06-25T23:59:46.437Z,19.54
